Time;durP1;ratioP1;P1;durP2;ratioP2;P2;SDS_P1;SDS_P2;PMS_P1;PMS_P2;Temp;Humidity;BMP_temperature;BMP_pressure;BME280_temperature;BME280_humidity;BME280_pressure;Samples;Min_cycle;Max_cycle;Signal;HPM_P1;HPM_P2
2021/11/04 00:01:37;;;;;;;27.00;14.85;;;;;;;9.23;69.57;93883.56;5016369;28;20025;-79
2021/11/04 00:04:03;;;;;;;32.20;14.40;;;;;;;9.45;69.95;93899.44;5017943;28;20025;-77
2021/11/04 00:06:30;;;;;;;18.67;11.75;;;;;;;9.61;69.14;93928.28;5018174;28;20068;-77
2021/11/04 00:08:55;;;;;;;18.13;10.70;;;;;;;9.65;68.91;93922.06;5016852;28;20065;-78
2021/11/04 00:11:20;;;;;;;21.20;10.43;;;;;;;9.72;67.87;93926.94;5029230;28;20038;-78
2021/11/04 00:13:46;;;;;;;15.45;8.95;;;;;;;9.64;68.70;93904.53;5016830;28;20049;-77
2021/11/04 00:16:12;;;;;;;16.48;9.40;;;;;;;9.72;67.57;93916.31;5016280;28;20033;-76
2021/11/04 00:18:39;;;;;;;15.02;8.98;;;;;;;9.63;67.60;93910.19;5019650;28;20054;-77
2021/11/04 00:21:05;;;;;;;16.80;8.98;;;;;;;9.59;67.60;93891.41;5022409;28;20042;-76
2021/11/04 00:23:30;;;;;;;15.18;7.85;;;;;;;9.79;65.79;93896.19;5017926;28;20048;-76
2021/11/04 00:25:56;;;;;;;16.77;9.25;;;;;;;9.64;66.15;93878.00;5022383;28;20105;-77
2021/11/04 00:28:21;;;;;;;14.27;8.20;;;;;;;9.89;66.45;93911.88;5024046;28;20032;-77
2021/11/04 00:30:47;;;;;;;13.10;7.53;;;;;;;9.93;66.49;93906.72;5021367;28;20064;-77
2021/11/04 00:33:13;;;;;;;19.67;8.55;;;;;;;10.03;66.08;93908.31;5019264;28;20037;-76
2021/11/04 00:35:38;;;;;;;12.10;6.53;;;;;;;10.10;65.33;93906.81;5016956;28;20056;-77
2021/11/04 00:38:04;;;;;;;12.20;6.80;;;;;;;10.12;64.50;93899.28;5015626;28;20046;-75
2021/11/04 00:40:30;;;;;;;19.85;9.18;;;;;;;10.25;62.78;93914.38;5012250;28;20036;-76
2021/11/04 00:42:56;;;;;;;17.00;8.48;;;;;;;10.26;63.46;93934.53;5014567;28;21074;-76
2021/11/04 00:45:22;;;;;;;15.65;7.95;;;;;;;10.28;62.73;93934.22;5013868;28;20033;-77
2021/11/04 00:47:48;;;;;;;13.50;8.10;;;;;;;10.25;61.83;93932.97;5017735;28;20037;-77
2021/11/04 00:50:15;;;;;;;25.40;11.40;;;;;;;10.10;62.98;93944.00;5009832;28;20053;-76
2021/11/04 00:52:41;;;;;;;24.95;10.43;;;;;;;9.79;64.99;93937.91;5019802;28;20023;-77
2021/11/04 00:55:08;;;;;;;57.45;18.17;;;;;;;9.46;66.80;93918.81;5019926;28;20029;-75
2021/11/04 00:57:33;;;;;;;25.52;11.07;;;;;;;9.17;67.09;93927.22;5016244;28;20301;-77
2021/11/04 00:59:59;;;;;;;18.92;9.63;;;;;;;8.92;69.76;93919.78;5018839;28;20110;-77
2021/11/04 01:02:25;;;;;;;13.63;8.13;;;;;;;9.16;68.90;93946.84;5020657;28;20044;-76
2021/11/04 01:04:50;;;;;;;14.30;7.65;;;;;;;9.28;69.26;93944.47;5016903;28;20057;-76
2021/11/04 01:07:16;;;;;;;27.80;13.55;;;;;;;9.26;67.93;93930.72;5026575;28;20049;-77
2021/11/04 01:09:41;;;;;;;16.60;8.80;;;;;;;9.16;69.38;93907.06;5024598;28;20029;-77
2021/11/04 01:12:06;;;;;;;20.25;10.30;;;;;;;9.47;69.23;93906.34;5026640;28;20123;-77
2021/11/04 01:14:32;;;;;;;14.85;9.13;;;;;;;9.63;68.10;93889.72;5022621;28;20041;-77
2021/11/04 01:16:57;;;;;;;19.42;8.15;;;;;;;9.25;69.20;93899.16;5027581;28;20049;-77
2021/11/04 01:19:23;;;;;;;13.32;7.72;;;;;;;9.50;67.60;93903.06;5025352;28;20037;-76
2021/11/04 01:21:48;;;;;;;19.27;8.00;;;;;;;9.20;68.89;93886.78;5028972;28;20037;-77
2021/11/04 01:24:14;;;;;;;18.25;8.88;;;;;;;9.72;65.89;93911.00;5027441;28;20132;-78
2021/11/04 01:26:39;;;;;;;19.38;10.43;;;;;;;9.52;66.14;93875.13;5025093;28;20041;-76
2021/11/04 01:29:05;;;;;;;21.38;10.50;;;;;;;8.44;65.41;93673.81;5033927;28;20076;-77
2021/11/04 01:31:30;;;;;;;15.02;8.85;;;;;;;9.82;65.81;93900.13;5024705;28;20030;-77
2021/11/04 01:33:55;;;;;;;15.95;8.73;;;;;;;9.82;64.84;93873.56;5033024;28;20029;-78
2021/11/04 01:36:23;;;;;;;14.02;8.52;;;;;;;9.88;64.86;93882.94;5028221;28;20129;-76
2021/11/04 01:38:48;;;;;;;11.48;7.75;;;;;;;9.88;64.79;93882.94;5031249;28;20055;-77
2021/11/04 01:41:16;;;;;;;13.40;7.13;;;;;;;9.97;64.84;93898.94;5024037;28;20064;-76
2021/11/04 01:43:41;;;;;;;13.43;7.65;;;;;;;9.99;63.74;93873.63;5028930;28;20029;-76
2021/11/04 01:46:07;;;;;;;12.45;6.82;;;;;;;10.13;62.56;93874.28;5028516;28;20034;-77
2021/11/04 01:48:32;;;;;;;10.35;6.25;;;;;;;10.25;62.31;93893.09;5023737;28;20041;-77
2021/11/04 01:50:58;;;;;;;12.00;6.38;;;;;;;10.10;62.52;93890.06;5029998;28;20054;-77
2021/11/04 01:53:23;;;;;;;14.07;6.18;;;;;;;10.11;61.28;93881.81;5026734;28;20104;-76
2021/11/04 01:55:50;;;;;;;11.13;7.32;;;;;;;9.66;62.74;93896.28;5026214;28;20054;-76
2021/11/04 01:58:16;;;;;;;11.45;6.68;;;;;;;9.94;62.84;93921.56;5026169;28;20049;-77
2021/11/04 02:00:43;;;;;;;16.50;7.80;;;;;;;9.98;62.71;93906.59;5025892;28;20048;-80
2021/11/04 02:03:21;;;;;;;11.48;7.32;;;;;;;10.12;62.59;93904.59;5028597;28;20045;-76
2021/11/04 02:06:09;;;;;;;10.63;6.68;;;;;;;10.14;62.54;93912.28;5021331;28;20444;-78
2021/11/04 02:08:46;;;;;;;9.45;5.63;;;;;;;10.38;60.64;93906.59;5027233;28;20431;-78
2021/11/04 02:11:19;;;;;;;11.60;5.85;;;;;;;10.03;60.97;93855.19;5025320;28;20037;-77
2021/11/04 02:14:06;;;;;;;15.82;8.23;;;;;;;10.25;61.61;93902.94;5034454;28;20049;-77
2021/11/04 02:16:33;;;;;;;15.43;6.95;;;;;;;10.37;60.35;93911.13;5026570;28;20112;-78
2021/11/04 02:19:18;;;;;;;12.70;6.63;;;;;;;10.23;61.23;93915.75;5027001;28;20033;-77
2021/11/04 02:22:02;;;;;;;12.63;7.00;;;;;;;10.28;61.20;93916.41;5025733;28;20049;-76
2021/11/04 02:24:40;;;;;;;16.35;8.43;;;;;;;10.18;61.10;93924.66;5025079;28;20052;-75
2021/11/04 02:27:09;;;;;;;14.82;8.10;;;;;;;9.98;61.85;93898.63;5028045;28;20037;-77
2021/11/04 02:29:37;;;;;;;9.73;5.45;;;;;;;10.11;61.33;93912.91;5031314;28;20045;-77
2021/11/04 02:32:03;;;;;;;8.35;4.43;;;;;;;10.05;61.39;93888.34;5025416;28;20099;-77
2021/11/04 02:34:29;;;;;;;10.85;5.00;;;;;;;10.19;61.32;93918.25;5028606;28;20056;-78
2021/11/04 02:36:59;;;;;;;10.63;4.88;;;;;;;10.34;60.83;93922.34;5027377;28;20016;-76
2021/11/04 02:39:27;;;;;;;7.30;4.53;;;;;;;10.26;59.39;93900.00;5021893;28;20041;-77
2021/11/04 02:41:53;;;;;;;12.32;5.82;;;;;;;10.30;59.76;93922.19;5022076;28;20037;-78
2021/11/04 02:44:19;;;;;;;11.20;4.55;;;;;;;10.20;60.55;93932.31;5029196;28;20438;-78
2021/11/04 02:46:44;;;;;;;9.20;5.72;;;;;;;10.20;60.26;93940.28;5017525;28;20041;-77
2021/11/04 02:49:11;;;;;;;14.45;6.95;;;;;;;9.96;60.52;93922.06;5027542;28;20021;-77
2021/11/04 02:51:38;;;;;;;10.80;5.72;;;;;;;10.07;59.80;93927.91;5031285;28;20057;-77
2021/11/04 02:54:06;;;;;;;12.50;6.32;;;;;;;10.08;60.84;93946.19;5026383;28;20037;-77
2021/11/04 02:56:47;;;;;;;12.95;6.22;;;;;;;10.20;60.05;93962.34;5022789;28;20030;-77
2021/11/04 02:59:15;;;;;;;15.88;7.63;;;;;;;10.05;60.81;93959.28;5024310;28;20057;-76
2021/11/04 03:01:42;;;;;;;15.65;7.53;;;;;;;9.87;61.27;93940.63;5024769;28;20040;-77
2021/11/04 03:04:08;;;;;;;28.13;11.50;;;;;;;9.99;62.28;93941.91;5026291;28;20021;-76
2021/11/04 03:06:33;;;;;;;18.00;8.95;;;;;;;10.14;61.28;93965.44;5024230;28;20060;-77
2021/11/04 03:08:58;;;;;;;20.90;10.13;;;;;;;9.82;61.70;93945.28;5024876;28;20033;-78
2021/11/04 03:11:24;;;;;;;24.42;10.98;;;;;;;9.73;62.11;93947.09;5024617;28;20184;-78
2021/11/04 03:13:49;;;;;;;26.48;12.57;;;;;;;9.40;62.64;93902.22;5023450;28;20042;-77
2021/11/04 03:16:18;;;;;;;24.10;10.88;;;;;;;9.66;62.97;93947.53;5028534;28;20036;-78
2021/11/04 03:18:44;;;;;;;21.45;10.52;;;;;;;9.66;64.56;93954.72;5023558;28;20100;-74
2021/11/04 03:21:11;;;;;;;19.00;8.68;;;;;;;9.78;64.00;93952.28;5022001;28;20173;-76
2021/11/04 03:23:36;;;;;;;20.73;8.52;;;;;;;9.54;64.96;93955.25;5018277;28;20424;-77
2021/11/04 03:26:03;;;;;;;21.73;10.57;;;;;;;9.08;65.53;93928.97;5019507;28;20041;-77
2021/11/04 03:28:30;;;;;;;18.23;10.23;;;;;;;9.58;64.26;93979.34;5020708;28;20052;-76
2021/11/04 03:30:57;;;;;;;17.25;10.32;;;;;;;9.63;64.66;93966.75;5022683;28;20121;-76
2021/11/04 03:33:23;;;;;;;17.88;10.70;;;;;;;9.54;64.16;93975.69;5011884;28;20045;-77
2021/11/04 03:35:50;;;;;;;26.85;12.73;;;;;;;9.45;64.26;93980.97;5017595;28;20057;-77
2021/11/04 03:38:16;;;;;;;21.23;11.23;;;;;;;9.29;64.28;93967.25;5016880;28;20068;-76
2021/11/04 03:40:43;;;;;;;23.77;10.15;;;;;;;9.33;63.70;93967.44;5017037;28;20470;-76
2021/11/04 03:43:10;;;;;;;23.58;11.60;;;;;;;9.42;63.56;93966.44;5018988;28;20606;-76
2021/11/04 03:45:37;;;;;;;21.15;10.85;;;;;;;9.59;62.57;93960.44;5022444;28;20699;-77
2021/11/04 03:48:05;;;;;;;15.70;8.48;;;;;;;9.20;62.22;93955.78;5021250;28;20073;-77
2021/11/04 03:50:32;;;;;;;13.63;7.78;;;;;;;9.39;62.99;93967.00;5017353;28;20041;-76
2021/11/04 03:52:57;;;;;;;12.57;7.95;;;;;;;9.34;61.95;93948.56;5019768;28;20041;-76
2021/11/04 03:55:25;;;;;;;28.20;11.52;;;;;;;9.39;62.47;93967.00;5029144;28;20098;-76
2021/11/04 03:57:53;;;;;;;21.52;11.05;;;;;;;9.18;63.67;93970.44;5023022;28;20052;-77
2021/11/04 04:00:18;;;;;;;25.63;10.65;;;;;;;8.80;64.64;93936.25;5025784;28;20654;-77
2021/11/04 04:02:46;;;;;;;17.23;7.45;;;;;;;8.93;64.95;93955.84;5024351;28;20046;-77
2021/11/04 04:05:13;;;;;;;13.10;7.70;;;;;;;9.22;63.62;93958.16;5022954;28;20034;-76
2021/11/04 04:07:38;;;;;;;12.65;6.65;;;;;;;9.17;63.26;93968.88;5028024;28;20018;-77
2021/11/04 04:10:04;;;;;;;12.23;7.05;;;;;;;9.14;63.33;93946.41;5023042;28;20040;-77
2021/11/04 04:12:29;;;;;;;11.38;7.20;;;;;;;9.26;63.23;93951.94;5024499;28;20492;-77
2021/11/04 04:14:55;;;;;;;9.23;5.75;;;;;;;9.13;63.47;93946.69;5026277;28;20072;-77
2021/11/04 04:17:21;;;;;;;11.93;6.70;;;;;;;9.43;62.98;93973.31;5024699;28;20042;-77
2021/11/04 04:19:50;;;;;;;10.95;6.05;;;;;;;9.14;63.50;93967.63;5025702;28;20041;-77
2021/11/04 04:22:17;;;;;;;9.90;6.53;;;;;;;9.04;63.01;93928.03;5024184;28;20026;-77
2021/11/04 04:24:42;;;;;;;10.93;6.00;;;;;;;9.40;62.32;93965.16;5029369;28;20097;-78
2021/11/04 04:27:08;;;;;;;14.02;6.75;;;;;;;9.18;62.67;93955.31;5024925;28;20053;-77
2021/11/04 04:29:33;;;;;;;12.55;6.43;;;;;;;9.39;62.95;93964.34;5023556;28;20109;-77
2021/11/04 04:31:59;;;;;;;10.52;6.22;;;;;;;9.57;62.18;93956.53;5020557;28;20059;-78
2021/11/04 04:34:25;;;;;;;18.15;8.68;;;;;;;9.57;62.29;93965.28;5028378;28;20017;-76
2021/11/04 04:36:51;;;;;;;17.48;9.50;;;;;;;9.54;62.91;93973.03;5022662;28;20026;-77
2021/11/04 04:39:16;;;;;;;20.15;10.05;;;;;;;9.52;64.52;93970.72;5023795;28;20062;-76
2021/11/04 04:41:41;;;;;;;17.50;10.68;;;;;;;8.99;65.02;93955.44;5029462;28;20033;-77
2021/11/04 04:44:07;;;;;;;19.35;9.77;;;;;;;9.11;64.73;93964.72;5025274;28;20103;-76
2021/11/04 04:46:32;;;;;;;17.35;10.73;;;;;;;9.43;64.66;93970.66;5025580;28;20013;-76
2021/11/04 04:48:58;;;;;;;19.55;10.57;;;;;;;9.53;63.65;93987.44;5028195;28;20698;-77
2021/11/04 04:51:23;;;;;;;22.73;11.48;;;;;;;9.55;63.16;93985.25;5030834;28;20144;-77
2021/11/04 04:53:49;;;;;;;16.85;10.10;;;;;;;9.02;64.15;93962.78;5025554;28;20038;-77
2021/11/04 04:56:14;;;;;;;22.13;11.38;;;;;;;9.20;64.09;93979.66;5030834;28;20157;-77
2021/11/04 04:58:40;;;;;;;20.63;11.65;;;;;;;9.11;66.05;93997.38;5033491;28;20085;-77
2021/11/04 05:01:05;;;;;;;21.90;11.23;;;;;;;9.20;65.78;93990.28;5024532;28;20037;-77
2021/11/04 05:03:31;;;;;;;23.75;13.43;;;;;;;9.33;65.38;93994.78;5025631;28;20037;-77
2021/11/04 05:05:56;;;;;;;22.52;11.90;;;;;;;9.41;65.06;93991.41;5030722;28;20033;-78
2021/11/04 05:08:22;;;;;;;24.25;12.32;;;;;;;9.22;66.18;93985.47;5035793;28;20038;-78
2021/11/04 05:10:47;;;;;;;22.95;12.10;;;;;;;9.15;65.14;93939.97;5030044;28;20797;-78
2021/11/04 05:13:12;;;;;;;24.00;12.93;;;;;;;9.57;65.01;93969.81;5032623;28;20609;-77
2021/11/04 05:15:40;;;;;;;21.55;11.80;;;;;;;9.61;64.57;93962.78;5031320;28;20183;-76
2021/11/04 05:18:08;;;;;;;20.23;12.07;;;;;;;9.48;64.11;93958.34;5028845;28;20054;-77
2021/11/04 05:20:34;;;;;;;22.40;11.70;;;;;;;9.71;62.74;93957.25;5027420;28;20049;-77
2021/11/04 05:23:00;;;;;;;34.08;16.52;;;;;;;9.54;63.26;93941.19;5029293;28;20042;-78
2021/11/04 05:25:25;;;;;;;25.48;14.75;;;;;;;8.99;66.10;93967.94;5032382;28;20025;-78
2021/11/04 05:27:51;;;;;;;23.23;13.02;;;;;;;9.27;65.98;93973.97;5022705;28;20056;-77
2021/11/04 05:30:18;;;;;;;21.80;12.00;;;;;;;9.41;65.01;93970.16;5031140;28;20068;-77
2021/11/04 05:32:45;;;;;;;23.50;12.23;;;;;;;9.53;65.22;93963.53;5028886;28;20094;-78
2021/11/04 05:35:12;;;;;;;24.92;13.65;;;;;;;9.28;66.87;93978.97;5028080;28;20201;-76
2021/11/04 05:37:37;;;;;;;21.55;11.68;;;;;;;9.52;65.58;93964.63;5022352;28;20716;-77
2021/11/04 05:40:05;;;;;;;17.77;9.93;;;;;;;9.62;65.00;93967.03;5028166;28;20357;-76
2021/11/04 05:42:30;;;;;;;19.05;9.48;;;;;;;9.51;64.99;93979.75;5026831;28;20504;-79
2021/11/04 05:44:55;;;;;;;16.67;10.73;;;;;;;9.49;64.43;93944.00;5018872;28;20038;-76
2021/11/04 05:47:21;;;;;;;24.77;12.15;;;;;;;9.81;63.40;93972.94;5022981;28;20052;-76
2021/11/04 05:49:46;;;;;;;20.35;10.85;;;;;;;9.52;64.84;93981.34;5019416;28;20049;-77
2021/11/04 05:52:13;;;;;;;23.08;11.85;;;;;;;9.69;65.09;93970.81;5026323;28;20026;-77
2021/11/04 05:54:39;;;;;;;22.17;12.30;;;;;;;9.97;64.78;93997.25;5023110;28;20128;-77
2021/11/04 05:57:04;;;;;;;20.48;10.85;;;;;;;9.92;64.73;93982.22;5026351;28;20041;-76
2021/11/04 05:59:30;;;;;;;19.02;10.45;;;;;;;10.21;64.46;93998.47;5027826;28;20067;-77
2021/11/04 06:01:56;;;;;;;38.22;17.13;;;;;;;10.18;65.02;93999.06;5023185;28;20107;-77
2021/11/04 06:04:22;;;;;;;35.75;16.95;;;;;;;10.15;65.06;94005.00;5026010;28;20036;-77
2021/11/04 06:06:48;;;;;;;33.05;13.45;;;;;;;10.31;64.84;94011.50;5025303;28;20600;-78
2021/11/04 06:09:13;;;;;;;32.28;14.80;;;;;;;10.31;65.09;94022.13;5034687;28;20042;-78
2021/11/04 06:11:39;;;;;;;26.25;14.05;;;;;;;10.46;65.79;94068.84;5030407;28;20040;-77
2021/11/04 06:14:05;;;;;;;28.83;14.93;;;;;;;10.21;66.64;94051.63;5023559;28;20107;-78
2021/11/04 06:16:31;;;;;;;37.85;17.38;;;;;;;10.31;66.85;94069.97;5026592;28;20028;-78
2021/11/04 06:18:56;;;;;;;33.28;15.40;;;;;;;10.31;67.49;94051.38;5029007;28;20045;-77
2021/11/04 06:21:22;;;;;;;34.53;16.52;;;;;;;10.08;68.21;94020.59;5028588;28;20042;-77
2021/11/04 06:23:47;;;;;;;31.75;15.32;;;;;;;10.37;67.90;94072.53;5026001;28;20526;-77
2021/11/04 06:26:14;;;;;;;27.25;14.38;;;;;;;10.47;67.98;94069.59;5022686;28;20559;-79
2021/11/04 06:28:40;;;;;;;39.97;17.88;;;;;;;10.50;67.91;94037.09;5022565;28;20418;-77
2021/11/04 06:31:05;;;;;;;34.20;16.52;;;;;;;10.69;67.53;94042.97;5022177;28;20045;-77
2021/11/04 06:33:30;;;;;;;31.88;16.88;;;;;;;10.51;68.41;94028.03;5021281;28;20057;-75
2021/11/04 06:35:56;;;;;;;26.23;14.98;;;;;;;10.80;67.19;94040.81;5019991;28;20038;-76
2021/11/04 06:38:21;;;;;;;27.85;15.80;;;;;;;10.85;67.74;94033.47;5022286;28;20091;-76
2021/11/04 06:40:47;;;;;;;31.83;17.35;;;;;;;10.11;71.49;94041.25;5021751;28;20033;-78
2021/11/04 06:43:12;;;;;;;34.88;18.33;;;;;;;10.19;71.59;94021.13;5029278;28;20077;-77
2021/11/04 06:45:45;;;;;;;27.80;16.88;;;;;;;10.06;73.88;94030.75;5025886;28;20105;-77
2021/11/04 06:48:14;;;;;;;34.10;16.85;;;;;;;9.68;74.47;94013.63;5040298;28;20403;-76
2021/11/04 06:50:41;;;;;;;32.45;16.70;;;;;;;10.21;73.28;94019.72;5028997;28;20029;-76
2021/11/04 06:53:09;;;;;;;33.45;17.58;;;;;;;10.11;73.92;94035.16;5024403;28;20225;-77
2021/11/04 06:55:39;;;;;;;34.58;17.80;;;;;;;10.05;74.02;94053.09;5026451;28;20032;-77
2021/11/04 06:58:05;;;;;;;39.15;19.35;;;;;;;10.33;73.99;94043.88;5017600;28;20018;-77
2021/11/04 07:00:33;;;;;;;34.25;18.77;;;;;;;10.83;72.23;94066.78;5026865;28;20033;-78
2021/11/04 07:03:18;;;;;;;32.92;17.67;;;;;;;10.99;71.21;94068.72;5018931;28;20046;-78
2021/11/04 07:05:45;;;;;;;33.38;17.70;;;;;;;11.34;70.25;94076.78;5023622;28;20088;-78
2021/11/04 07:08:22;;;;;;;32.92;16.45;;;;;;;11.39;69.25;94058.00;5024155;28;20084;-76
2021/11/04 07:10:59;;;;;;;33.65;16.55;;;;;;;11.53;68.52;94058.69;5024754;28;20056;-76
2021/11/04 07:13:26;;;;;;;31.58;17.10;;;;;;;11.22;69.88;94065.97;5006776;28;20105;-77
2021/11/04 07:15:55;;;;;;;36.72;16.90;;;;;;;11.56;68.76;94063.38;5022868;28;20025;-77
2021/11/04 07:18:22;;;;;;;32.10;17.50;;;;;;;11.39;69.09;94060.69;5017619;28;20393;-78
2021/11/04 07:20:55;;;;;;;33.53;18.20;;;;;;;11.46;68.80;94032.47;5018676;28;20115;-78
2021/11/04 07:23:36;;;;;;;32.25;17.65;;;;;;;11.37;69.15;94041.56;5023101;28;20033;-77
2021/11/04 07:26:06;;;;;;;37.78;20.67;;;;;;;11.40;69.83;94062.22;5013865;28;20045;-77
2021/11/04 07:28:34;;;;;;;31.30;16.83;;;;;;;10.87;71.33;94025.94;5025909;28;20025;-77
2021/11/04 07:31:00;;;;;;;29.45;16.67;;;;;;;11.27;69.36;94020.53;5025231;28;20547;-78
2021/11/04 07:33:32;;;;;;;29.48;14.80;;;;;;;11.53;68.36;94038.16;5023129;28;20041;-78
2021/11/04 07:35:57;;;;;;;28.25;16.05;;;;;;;11.45;67.49;94001.59;5018533;28;20045;-76
2021/11/04 07:38:26;;;;;;;26.60;15.02;;;;;;;11.96;67.05;94061.34;5013078;28;20049;-76
2021/11/04 07:40:52;;;;;;;64.72;28.30;;;;;;;11.82;67.83;94076.72;5015186;28;20045;-77
2021/11/04 07:43:18;;;;;;;27.40;15.27;;;;;;;11.10;69.64;94042.63;5013944;28;20038;-78
2021/11/04 07:45:43;;;;;;;30.02;16.48;;;;;;;11.70;68.29;94066.66;5015801;28;20034;-77
2021/11/04 07:48:09;;;;;;;98.55;35.95;;;;;;;11.29;69.67;94058.31;5014388;28;20403;-76
2021/11/04 07:50:35;;;;;;;37.38;17.40;;;;;;;11.28;70.38;94068.16;5014618;28;20034;-77
2021/11/04 07:53:00;;;;;;;25.23;14.27;;;;;;;11.49;70.36;94053.13;5008933;28;20049;-76
2021/11/04 07:55:26;;;;;;;29.83;16.60;;;;;;;11.42;68.90;94060.03;5008666;28;20708;-76
2021/11/04 07:57:51;;;;;;;24.70;13.80;;;;;;;10.98;70.90;94053.06;5020382;28;20080;-76
2021/11/04 08:00:19;;;;;;;30.00;14.15;;;;;;;11.50;69.17;94065.38;5013180;28;20053;-78
2021/11/04 08:02:45;;;;;;;29.40;15.05;;;;;;;11.28;70.96;94072.72;5021526;28;20033;-76
2021/11/04 08:05:14;;;;;;;29.00;15.90;;;;;;;11.22;70.34;94087.25;5008064;28;20353;-76
2021/11/04 08:07:40;;;;;;;28.58;15.65;;;;;;;11.18;71.49;94087.09;5024313;28;20060;-78
2021/11/04 08:10:11;;;;;;;29.70;16.02;;;;;;;11.69;69.35;94094.41;5036263;28;20101;-77
2021/11/04 08:12:37;;;;;;;26.98;14.82;;;;;;;12.08;67.34;94080.13;5023055;28;20053;-77
2021/11/04 08:15:04;;;;;;;27.85;14.85;;;;;;;12.44;66.12;94093.09;5023971;28;20109;-77
2021/11/04 08:17:29;;;;;;;27.35;15.00;;;;;;;12.29;65.00;94038.38;5022083;28;20028;-77
2021/11/04 08:19:55;;;;;;;24.42;14.43;;;;;;;12.79;64.53;94078.59;5025213;28;20109;-77
2021/11/04 08:22:21;;;;;;;74.32;26.33;;;;;;;12.75;63.49;94060.88;5022977;28;20037;-78
2021/11/04 08:24:47;;;;;;;28.40;15.48;;;;;;;12.59;64.67;94084.63;5020328;28;20052;-78
2021/11/04 08:27:14;;;;;;;27.55;14.68;;;;;;;12.70;64.14;94075.16;5017032;28;20128;-76
2021/11/04 08:29:40;;;;;;;24.70;13.27;;;;;;;12.98;63.82;94072.06;5013142;28;20322;-77
2021/11/04 08:32:08;;;;;;;25.60;13.48;;;;;;;12.89;62.15;94048.09;5007809;28;20048;-77
2021/11/04 08:34:34;;;;;;;33.22;16.25;;;;;;;12.08;66.33;94085.44;5016021;28;20021;-77
2021/11/04 08:37:00;;;;;;;21.40;12.85;;;;;;;12.09;67.04;94083.56;5013241;28;20168;-78
2021/11/04 08:39:25;;;;;;;21.73;13.98;;;;;;;12.59;65.07;94057.94;5017782;28;20537;-76
2021/11/04 08:41:52;;;;;;;28.23;14.70;;;;;;;12.34;65.61;94066.75;5018244;28;20033;-77
2021/11/04 08:44:18;;;;;;;23.15;13.52;;;;;;;12.49;66.27;94087.59;5027009;28;20103;-77
2021/11/04 08:46:44;;;;;;;25.27;13.65;;;;;;;12.43;65.99;94070.97;5018581;28;20053;-77
2021/11/04 08:49:09;;;;;;;28.58;14.00;;;;;;;12.38;66.16;94060.47;5013381;28;20026;-76
2021/11/04 08:51:35;;;;;;;22.85;14.18;;;;;;;12.66;66.07;94068.91;5013958;28;20045;-77
2021/11/04 08:54:00;;;;;;;26.52;15.23;;;;;;;12.51;65.76;94080.06;5022037;28;20620;-77
2021/11/04 08:56:26;;;;;;;25.15;14.18;;;;;;;12.41;67.08;94088.41;5016408;28;20067;-77
2021/11/04 08:58:51;;;;;;;26.27;14.15;;;;;;;12.03;65.98;94033.09;5011675;28;20079;-77
2021/11/04 09:01:17;;;;;;;25.55;13.80;;;;;;;12.33;66.74;94055.31;5013884;28;20067;-77
2021/11/04 09:03:43;;;;;;;24.30;14.88;;;;;;;12.08;66.33;94052.72;5007235;28;20559;-77
2021/11/04 09:06:09;;;;;;;24.17;12.63;;;;;;;11.93;67.86;94041.41;5014279;28;20041;-77
2021/11/04 09:08:34;;;;;;;22.17;12.43;;;;;;;11.89;68.29;94029.81;5025335;28;20125;-78
2021/11/04 09:11:00;;;;;;;25.33;11.85;;;;;;;11.73;67.61;94028.75;5021595;28;20053;-79
2021/11/04 09:13:25;;;;;;;19.65;11.38;;;;;;;12.01;67.63;94048.63;5024981;28;20125;-77
2021/11/04 09:15:51;;;;;;;17.58;10.63;;;;;;;12.06;67.15;94045.00;5019714;28;20491;-77
2021/11/04 09:18:20;;;;;;;17.75;8.63;;;;;;;11.89;66.79;94021.03;5021361;28;20337;-76
2021/11/04 09:20:46;;;;;;;14.77;7.65;;;;;;;11.96;66.61;94051.47;5014870;28;20580;-75
2021/11/04 09:23:12;;;;;;;12.93;7.80;;;;;;;12.10;66.91;94051.28;5014340;28;20661;-76
2021/11/04 09:25:37;;;;;;;10.48;7.45;;;;;;;12.25;65.43;94058.78;5015079;28;20022;-76
2021/11/04 09:28:03;;;;;;;9.43;5.85;;;;;;;12.26;64.97;94038.22;5019936;28;20149;-76
2021/11/04 09:30:29;;;;;;;9.82;6.50;;;;;;;12.57;63.61;94065.44;5017665;28;20040;-77
2021/11/04 09:32:56;;;;;;;11.38;5.80;;;;;;;12.78;62.43;94065.56;5022116;28;20041;-77
2021/11/04 09:35:22;;;;;;;11.32;5.18;;;;;;;12.99;62.58;94065.63;5023848;28;20053;-78
2021/11/04 09:37:48;;;;;;;15.90;6.18;;;;;;;13.37;61.02;94058.34;5016413;28;20204;-77
2021/11/04 09:40:16;;;;;;;11.02;5.55;;;;;;;13.37;61.20;94055.66;5016969;28;20142;-76
2021/11/04 09:42:42;;;;;;;8.50;5.15;;;;;;;13.68;59.74;94066.03;5007292;28;20504;-77
2021/11/04 09:45:07;;;;;;;12.07;5.55;;;;;;;13.36;59.42;94058.66;5012525;28;20034;-76
2021/11/04 09:47:33;;;;;;;10.82;4.88;;;;;;;13.58;59.43;94067.16;5021064;28;20049;-77
2021/11/04 09:50:01;;;;;;;7.60;4.75;;;;;;;13.70;59.56;94063.78;5023444;28;20041;-78
2021/11/04 09:52:31;;;;;;;10.77;4.75;;;;;;;13.66;58.27;94052.19;5025808;28;20048;-77
2021/11/04 09:54:57;;;;;;;9.90;4.75;;;;;;;14.01;57.72;94072.19;5039181;28;20090;-78
2021/11/04 09:57:25;;;;;;;14.18;5.43;;;;;;;13.85;57.76;94049.84;5027224;28;20108;-77
2021/11/04 09:59:53;;;;;;;8.00;4.32;;;;;;;14.09;56.97;94038.44;5021857;28;20105;-78
2021/11/04 10:02:23;;;;;;;6.07;3.63;;;;;;;14.29;56.91;94037.63;5021367;28;20414;-77
2021/11/04 10:04:50;;;;;;;9.10;4.57;;;;;;;14.40;55.87;94038.78;5023234;28;20042;-78
2021/11/04 10:07:17;;;;;;;10.30;5.72;;;;;;;14.46;56.15;94044.72;5011753;28;20029;-78
2021/11/04 10:10:02;;;;;;;20.35;4.80;;;;;;;14.16;56.25;94018.09;5021650;28;20457;-77
2021/11/04 10:12:29;;;;;;;9.02;4.50;;;;;;;14.39;56.49;94010.47;5015178;28;20457;-77
2021/11/04 10:15:14;;;;;;;8.02;4.55;;;;;;;14.46;55.88;94021.41;5022671;28;20045;-76
2021/11/04 10:17:40;;;;;;;8.10;3.75;;;;;;;14.57;55.43;94003.81;5019085;28;20128;-75
2021/11/04 10:20:23;;;;;;;7.97;3.75;;;;;;;14.58;53.76;93997.34;5018006;28;20052;-76
2021/11/04 10:23:07;;;;;;;7.85;4.57;;;;;;;14.64;53.39;93994.47;5016474;28;20095;-76
2021/11/04 10:25:33;;;;;;;10.75;4.82;;;;;;;14.80;53.83;94004.19;5010422;28;20036;-76
2021/11/04 10:27:59;;;;;;;7.22;4.30;;;;;;;15.08;53.44;94004.28;5015355;28;20029;-76
2021/11/04 10:30:38;;;;;;;9.73;4.45;;;;;;;14.57;54.14;93990.44;5016115;28;20037;-77
2021/11/04 10:33:17;;;;;;;6.68;3.78;;;;;;;14.50;54.39;93994.75;5031242;28;20037;-77
2021/11/04 10:35:43;;;;;;;10.73;5.28;;;;;;;14.59;54.59;93988.22;5016430;28;20458;-78
2021/11/04 10:38:08;;;;;;;15.80;10.02;;;;;;;14.73;55.50;93993.25;5022177;28;20110;-78
2021/11/04 10:40:33;;;;;;;8.90;4.63;;;;;;;14.76;54.29;93965.81;5024807;28;20095;-77
2021/11/04 10:42:59;;;;;;;8.10;4.53;;;;;;;14.83;53.82;93976.72;5022572;28;20673;-77
2021/11/04 10:45:29;;;;;;;8.40;4.95;;;;;;;14.59;54.07;93974.06;5027110;28;20033;-76
2021/11/04 10:48:21;;;;;;;7.32;4.72;;;;;;;15.02;54.42;93984.19;5017624;28;20048;-78
2021/11/04 10:50:49;;;;;;;9.30;5.50;;;;;;;15.23;53.04;93973.34;5020474;28;20593;-78
2021/11/04 10:53:22;;;;;;;9.35;5.53;;;;;;;15.05;53.87;93954.06;5020842;28;20057;-78
2021/11/04 10:55:52;;;;;;;10.57;5.68;;;;;;;15.26;53.24;93978.00;5021544;28;20625;-77
2021/11/04 10:58:30;;;;;;;13.35;7.32;;;;;;;15.34;54.53;93972.53;5009272;28;20504;-77
2021/11/04 11:00:57;;;;;;;8.93;5.57;;;;;;;15.46;52.82;93972.53;5024939;28;20041;-78
2021/11/04 11:03:24;;;;;;;10.75;6.55;;;;;;;15.72;52.46;93974.03;5021952;28;20060;-76
2021/11/04 11:05:50;;;;;;;10.45;5.85;;;;;;;15.41;52.82;93958.56;5021232;28;20045;-76
2021/11/04 11:08:16;;;;;;;14.98;7.95;;;;;;;15.86;53.21;93948.38;5023176;28;20033;-77
2021/11/04 11:10:42;;;;;;;11.50;6.00;;;;;;;15.49;52.61;93927.41;5013037;28;20036;-77
2021/11/04 11:13:09;;;;;;;9.05;5.65;;;;;;;15.95;51.97;93950.91;5019648;28;20105;-77
2021/11/04 11:15:37;;;;;;;10.52;5.97;;;;;;;15.77;51.48;93931.66;5014587;28;20110;-76
2021/11/04 11:18:05;;;;;;;11.27;6.22;;;;;;;16.33;50.64;93953.81;5021254;28;20044;-78
2021/11/04 11:20:42;;;;;;;12.50;5.93;;;;;;;16.45;50.32;93941.47;5015896;28;20475;-77
2021/11/04 11:23:08;;;;;;;12.20;5.47;;;;;;;15.98;50.97;93938.72;5018594;28;20073;-77
2021/11/04 11:25:35;;;;;;;9.65;5.43;;;;;;;16.33;49.77;93926.22;5015919;28;20036;-77